Time;durP1;ratioP1;P1;durP2;ratioP2;P2;SDS_P1;SDS_P2;PMS_P1;PMS_P2;Temp;Humidity;BMP_temperature;BMP_pressure;BME280_temperature;BME280_humidity;BME280_pressure;Samples;Min_cycle;Max_cycle;Signal;HPM_P1;HPM_P2
2023/01/08 00:00:18;;;;;;;5.80;2.10;;;;;;;;;;6108473;19;20019;-69
2023/01/08 00:02:23;;;;;;;5.53;2.13;;;;;;;;;;6107663;19;20010;-69
2023/01/08 00:04:28;;;;;;;3.53;1.80;;;;;;;;;;6107235;19;20038;-68
2023/01/08 00:06:33;;;;;;;11.00;3.25;;;;;;;;;;6109487;19;20018;-69
2023/01/08 00:08:41;;;;;;;6.07;2.17;;;;;;;;;;6107688;19;20114;-69
2023/01/08 00:10:47;;;;;;;6.22;2.72;;;;;;;;;;6107881;19;20006;-69
2023/01/08 00:12:52;;;;;;;3.25;2.10;;;;;;;;;;6108693;19;20455;-69
2023/01/08 00:14:57;;;;;;;5.85;2.50;;;;;;;;;;6103581;19;20447;-71
2023/01/08 00:17:03;;;;;;;8.13;2.40;;;;;;;;;;6107162;19;20133;-69
2023/01/08 00:19:09;;;;;;;6.20;2.88;;;;;;;;;;6108914;19;20014;-69
2023/01/08 00:21:14;;;;;;;11.10;3.15;;;;;;;;;;6104257;19;21648;-70
2023/01/08 00:23:21;;;;;;;8.05;2.70;;;;;;;;;;6107999;19;20042;-71
2023/01/08 00:25:29;;;;;;;7.90;2.90;;;;;;;;;;6105288;19;20003;-71
2023/01/08 00:27:34;;;;;;;7.63;3.08;;;;;;;;;;6106450;19;20045;-71
2023/01/08 00:29:39;;;;;;;5.18;2.92;;;;;;;;;;6105870;19;20050;-71
2023/01/08 00:31:44;;;;;;;7.40;2.50;;;;;;;;;;6105051;19;20044;-70
2023/01/08 00:33:49;;;;;;;8.70;2.92;;;;;;;;;;6108241;19;20963;-71
2023/01/08 00:35:54;;;;;;;6.93;2.70;;;;;;;;;;6106192;19;20017;-71
2023/01/08 00:37:59;;;;;;;7.07;3.05;;;;;;;;;;6107781;19;20010;-69
2023/01/08 00:40:03;;;;;;;8.80;2.92;;;;;;;;;;6107055;19;20099;-69
2023/01/08 00:42:14;;;;;;;10.73;3.10;;;;;;;;;;6106581;19;20205;-69
2023/01/08 00:44:19;;;;;;;7.93;2.65;;;;;;;;;;6107202;19;20015;-71
2023/01/08 00:46:24;;;;;;;12.48;3.63;;;;;;;;;;6107944;19;20010;-71
2023/01/08 00:48:30;;;;;;;7.80;2.67;;;;;;;;;;6104380;19;20010;-71
2023/01/08 00:50:35;;;;;;;8.02;2.90;;;;;;;;;;6106550;19;20007;-71
2023/01/08 00:52:40;;;;;;;8.65;3.50;;;;;;;;;;6102834;19;20094;-71
2023/01/08 00:54:45;;;;;;;12.27;2.90;;;;;;;;;;6103643;19;20022;-72
2023/01/08 00:56:50;;;;;;;17.73;3.50;;;;;;;;;;6107883;19;20724;-71
2023/01/08 00:58:58;;;;;;;12.32;3.03;;;;;;;;;;6102083;19;20014;-70
2023/01/08 01:01:03;;;;;;;10.50;3.00;;;;;;;;;;6106325;19;20006;-70
2023/01/08 01:03:10;;;;;;;9.60;3.33;;;;;;;;;;6105919;19;20435;-70
2023/01/08 01:05:17;;;;;;;6.97;3.42;;;;;;;;;;6106251;19;20011;-70
2023/01/08 01:07:22;;;;;;;8.90;3.03;;;;;;;;;;6105193;19;20024;-70
2023/01/08 01:09:28;;;;;;;8.40;3.45;;;;;;;;;;6104259;19;20363;-71
2023/01/08 01:11:34;;;;;;;8.50;3.15;;;;;;;;;;6106258;19;20010;-71
2023/01/08 01:13:39;;;;;;;8.82;3.90;;;;;;;;;;6106584;19;20015;-72
2023/01/08 01:15:46;;;;;;;9.23;4.00;;;;;;;;;;6106269;19;20082;-72
2023/01/08 01:17:52;;;;;;;10.30;3.50;;;;;;;;;;6107241;19;20010;-71
2023/01/08 01:19:56;;;;;;;12.00;3.97;;;;;;;;;;6106210;19;20616;-71
2023/01/08 01:22:01;;;;;;;7.97;3.42;;;;;;;;;;6106917;19;20018;-71
2023/01/08 01:24:08;;;;;;;9.32;3.60;;;;;;;;;;6104982;19;20007;-71
2023/01/08 01:26:18;;;;;;;10.40;4.32;;;;;;;;;;6103559;19;20488;-72
2023/01/08 01:28:23;;;;;;;7.07;2.95;;;;;;;;;;6104465;19;20341;-71
2023/01/08 01:30:27;;;;;;;8.35;3.35;;;;;;;;;;6104188;19;20010;-71
2023/01/08 01:32:38;;;;;;;6.80;3.05;;;;;;;;;;6105316;19;20023;-71
2023/01/08 01:34:43;;;;;;;7.10;3.10;;;;;;;;;;6105040;19;20022;-71
2023/01/08 01:36:48;;;;;;;9.82;3.17;;;;;;;;;;6106513;19;20017;-71
2023/01/08 01:38:54;;;;;;;6.32;2.60;;;;;;;;;;6105166;19;20106;-71
2023/01/08 01:40:59;;;;;;;8.02;2.40;;;;;;;;;;6102654;19;20014;-71
2023/01/08 01:43:04;;;;;;;9.27;2.53;;;;;;;;;;6103509;19;20022;-71
2023/01/08 01:45:22;;;;;;;8.05;2.50;;;;;;;;;;6103065;19;20006;-71
2023/01/08 01:47:31;;;;;;;8.68;2.30;;;;;;;;;;6106146;19;20475;-72
2023/01/08 01:49:39;;;;;;;6.57;2.40;;;;;;;;;;6104905;19;20706;-72
2023/01/08 01:51:48;;;;;;;5.90;2.30;;;;;;;;;;6104840;19;20033;-72
2023/01/08 01:53:53;;;;;;;5.85;2.33;;;;;;;;;;6099103;19;20442;-72
2023/01/08 01:55:59;;;;;;;6.75;2.10;;;;;;;;;;6105039;19;20027;-72
2023/01/08 01:58:08;;;;;;;6.80;2.35;;;;;;;;;;6105679;19;20106;-73
2023/01/08 02:00:14;;;;;;;7.07;2.15;;;;;;;;;;6103773;19;20010;-72
2023/01/08 02:02:19;;;;;;;8.40;2.97;;;;;;;;;;6104090;19;20467;-71
2023/01/08 02:04:26;;;;;;;8.98;2.85;;;;;;;;;;6104664;19;20107;-72
2023/01/08 02:06:38;;;;;;;7.95;2.67;;;;;;;;;;6106322;19;20011;-71
2023/01/08 02:08:51;;;;;;;7.40;2.67;;;;;;;;;;6103901;19;20454;-71
2023/01/08 02:11:02;;;;;;;6.22;2.38;;;;;;;;;;6102436;19;20014;-71
2023/01/08 02:13:11;;;;;;;11.40;3.38;;;;;;;;;;6103007;19;20022;-71
2023/01/08 02:15:23;;;;;;;8.07;2.83;;;;;;;;;;6103858;19;20025;-72
2023/01/08 02:17:35;;;;;;;8.63;2.92;;;;;;;;;;6104999;19;20019;-71
2023/01/08 02:19:44;;;;;;;9.68;2.90;;;;;;;;;;6101937;19;20100;-71
2023/01/08 02:22:02;;;;;;;11.20;2.92;;;;;;;;;;6102607;19;20711;-71
2023/01/08 02:24:14;;;;;;;8.32;2.85;;;;;;;;;;6102943;19;20011;-71
2023/01/08 02:26:24;;;;;;;7.55;2.40;;;;;;;;;;6103471;19;20018;-72
2023/01/08 02:28:33;;;;;;;6.53;2.72;;;;;;;;;;6102483;19;20022;-73
2023/01/08 02:30:38;;;;;;;8.13;3.00;;;;;;;;;;6104336;19;20011;-71
2023/01/08 02:32:44;;;;;;;5.47;2.45;;;;;;;;;;6101893;19;20011;-71
2023/01/08 02:34:49;;;;;;;6.18;2.83;;;;;;;;;;6102227;19;20021;-71
2023/01/08 02:36:55;;;;;;;7.45;2.30;;;;;;;;;;6099027;19;20441;-71
2023/01/08 02:39:07;;;;;;;10.55;2.80;;;;;;;;;;6099555;19;20010;-71
2023/01/08 02:41:14;;;;;;;4.10;1.88;;;;;;;;;;6103011;19;20023;-71
2023/01/08 02:43:29;;;;;;;4.45;2.10;;;;;;;;;;6099362;19;20763;-71
2023/01/08 02:45:40;;;;;;;7.72;2.55;;;;;;;;;;6101145;19;20389;-71
2023/01/08 02:47:47;;;;;;;7.88;2.42;;;;;;;;;;6102360;19;19998;-72
2023/01/08 02:49:55;;;;;;;5.78;2.20;;;;;;;;;;6104334;19;20486;-71
2023/01/08 02:52:05;;;;;;;7.75;2.00;;;;;;;;;;6103821;19;20554;-70
2023/01/08 02:54:14;;;;;;;4.57;2.15;;;;;;;;;;6102785;19;20667;-71
2023/01/08 02:56:21;;;;;;;5.68;2.25;;;;;;;;;;6105970;19;20006;-71
2023/01/08 02:58:34;;;;;;;7.70;2.13;;;;;;;;;;6108279;19;20020;-71
2023/01/08 03:00:41;;;;;;;4.10;2.10;;;;;;;;;;6108726;19;20021;-71
2023/01/08 03:02:46;;;;;;;8.77;1.92;;;;;;;;;;6108071;19;20372;-71
2023/01/08 03:04:56;;;;;;;6.65;2.13;;;;;;;;;;6108915;19;20034;-72
2023/01/08 03:07:01;;;;;;;8.00;2.22;;;;;;;;;;6102206;19;20094;-72
2023/01/08 03:09:06;;;;;;;5.78;2.20;;;;;;;;;;6107368;19;20018;-71
2023/01/08 03:11:18;;;;;;;4.82;1.90;;;;;;;;;;6106649;19;20356;-72
2023/01/08 03:13:30;;;;;;;12.68;2.88;;;;;;;;;;6106948;19;20128;-72
2023/01/08 03:15:39;;;;;;;6.55;2.25;;;;;;;;;;6103766;19;20042;-72
2023/01/08 03:17:47;;;;;;;12.35;2.50;;;;;;;;;;6107442;19;20046;-71
2023/01/08 03:19:56;;;;;;;7.75;2.05;;;;;;;;;;6105701;19;20010;-72
2023/01/08 03:22:02;;;;;;;9.52;2.20;;;;;;;;;;6105755;19;20070;-72
2023/01/08 03:24:09;;;;;;;9.27;2.85;;;;;;;;;;6106548;19;20014;-72
2023/01/08 03:26:15;;;;;;;8.07;2.08;;;;;;;;;;6106959;19;20045;-73
2023/01/08 03:28:23;;;;;;;6.38;2.00;;;;;;;;;;6104641;19;20011;-72
2023/01/08 03:30:33;;;;;;;5.97;2.35;;;;;;;;;;6104483;19;20443;-72
2023/01/08 03:32:38;;;;;;;6.65;2.30;;;;;;;;;;6103089;19;20023;-72
2023/01/08 03:34:45;;;;;;;6.47;2.00;;;;;;;;;;6107741;19;20026;-72
2023/01/08 03:36:53;;;;;;;9.45;1.98;;;;;;;;;;6103390;19;20031;-73
2023/01/08 03:39:02;;;;;;;7.13;1.85;;;;;;;;;;6094506;19;20015;-71
2023/01/08 03:41:10;;;;;;;11.90;2.97;;;;;;;;;;6102866;19;20073;-73
2023/01/08 03:43:18;;;;;;;4.40;1.80;;;;;;;;;;6102804;19;20602;-72
2023/01/08 03:45:24;;;;;;;8.02;2.20;;;;;;;;;;6105244;19;20387;-73
2023/01/08 03:47:32;;;;;;;6.97;1.83;;;;;;;;;;6103346;19;20018;-73
2023/01/08 03:49:37;;;;;;;7.07;1.90;;;;;;;;;;6104971;19;20891;-73
2023/01/08 03:51:43;;;;;;;11.60;2.97;;;;;;;;;;6102113;19;20015;-73
2023/01/08 03:53:48;;;;;;;7.72;2.00;;;;;;;;;;6099045;19;20010;-73
2023/01/08 03:55:53;;;;;;;11.23;2.17;;;;;;;;;;6102793;19;20015;-73
2023/01/08 03:57:58;;;;;;;5.20;1.65;;;;;;;;;;6079144;19;21684;-73
2023/01/08 04:00:03;;;;;;;10.40;2.13;;;;;;;;;;6100585;19;20026;-73
2023/01/08 04:02:08;;;;;;;7.20;2.10;;;;;;;;;;6103742;19;20456;-73
2023/01/08 04:04:19;;;;;;;7.75;1.95;;;;;;;;;;6101958;19;20010;-72
2023/01/08 04:06:24;;;;;;;8.35;2.17;;;;;;;;;;6102332;19;20018;-73
2023/01/08 04:08:28;;;;;;;8.05;1.88;;;;;;;;;;6102712;19;20109;-73
2023/01/08 04:10:34;;;;;;;6.80;1.98;;;;;;;;;;6103186;19;20237;-73
2023/01/08 04:12:39;;;;;;;4.07;1.33;;;;;;;;;;6102067;19;20011;-72
2023/01/08 04:14:44;;;;;;;8.05;1.80;;;;;;;;;;6101189;19;20463;-72
2023/01/08 04:16:49;;;;;;;6.57;2.15;;;;;;;;;;6100514;19;20014;-73
2023/01/08 04:18:54;;;;;;;5.38;2.00;;;;;;;;;;6102054;19;20033;-73
2023/01/08 04:21:01;;;;;;;10.18;2.05;;;;;;;;;;6095717;19;20006;-74
2023/01/08 04:23:06;;;;;;;7.10;2.17;;;;;;;;;;6103228;19;20037;-73
2023/01/08 04:25:11;;;;;;;6.88;2.08;;;;;;;;;;6102268;19;20090;-74
2023/01/08 04:27:17;;;;;;;7.20;1.77;;;;;;;;;;6103337;19;20011;-73
2023/01/08 04:29:22;;;;;;;6.90;2.03;;;;;;;;;;6101913;19;20009;-72
2023/01/08 04:31:27;;;;;;;6.18;2.10;;;;;;;;;;6103629;19;20003;-73
2023/01/08 04:33:32;;;;;;;10.05;2.10;;;;;;;;;;6100863;19;20018;-72
2023/01/08 04:35:37;;;;;;;7.93;2.03;;;;;;;;;;6101459;19;20379;-73
2023/01/08 04:37:45;;;;;;;8.32;2.38;;;;;;;;;;6102760;19;20054;-73
2023/01/08 04:39:50;;;;;;;10.43;2.30;;;;;;;;;;6103422;19;20035;-72
2023/01/08 04:41:55;;;;;;;7.72;2.13;;;;;;;;;;6104867;19;20471;-73
2023/01/08 04:44:00;;;;;;;5.40;2.00;;;;;;;;;;6104279;19;20058;-73
2023/01/08 04:46:10;;;;;;;7.47;2.17;;;;;;;;;;6101140;19;20038;-73
2023/01/08 04:48:15;;;;;;;5.00;2.28;;;;;;;;;;6101128;19;20010;-74
2023/01/08 04:50:20;;;;;;;6.35;2.30;;;;;;;;;;6103493;19;20022;-73
2023/01/08 04:52:26;;;;;;;5.00;2.47;;;;;;;;;;6099213;19;20898;-72
2023/01/08 04:54:36;;;;;;;6.97;2.35;;;;;;;;;;6101721;19;20007;-74
2023/01/08 04:56:41;;;;;;;6.32;2.30;;;;;;;;;;6101574;19;20407;-74
2023/01/08 04:58:46;;;;;;;5.53;2.53;;;;;;;;;;6101128;19;20010;-74
2023/01/08 05:00:51;;;;;;;5.97;1.90;;;;;;;;;;6101180;19;20031;-73
2023/01/08 05:02:57;;;;;;;5.00;2.10;;;;;;;;;;6096238;19;20041;-72
2023/01/08 05:05:05;;;;;;;12.05;3.13;;;;;;;;;;6105227;19;20475;-73
2023/01/08 05:07:10;;;;;;;10.05;2.33;;;;;;;;;;6105987;19;20562;-73
2023/01/08 05:09:15;;;;;;;7.57;2.50;;;;;;;;;;6104449;19;20026;-74
2023/01/08 05:11:22;;;;;;;5.93;2.08;;;;;;;;;;6104946;19;20030;-72
2023/01/08 05:13:27;;;;;;;6.28;2.60;;;;;;;;;;6106506;19;20349;-73
2023/01/08 05:15:35;;;;;;;10.07;3.42;;;;;;;;;;6106173;19;20010;-74
2023/01/08 05:17:40;;;;;;;9.88;3.10;;;;;;;;;;6101654;19;20014;-73
2023/01/08 05:19:45;;;;;;;7.07;2.55;;;;;;;;;;6105388;19;20007;-73
2023/01/08 05:21:50;;;;;;;4.97;2.35;;;;;;;;;;6102718;19;20333;-73
2023/01/08 05:23:55;;;;;;;8.95;2.63;;;;;;;;;;6104648;19;20712;-73
2023/01/08 05:26:00;;;;;;;9.23;3.60;;;;;;;;;;6104847;19;20034;-72
2023/01/08 05:28:07;;;;;;;11.15;2.85;;;;;;;;;;6105651;19;20391;-73
2023/01/08 05:30:14;;;;;;;5.75;2.38;;;;;;;;;;6103922;19;20006;-72
2023/01/08 05:32:20;;;;;;;15.10;3.00;;;;;;;;;;6104030;19;20275;-74
2023/01/08 05:34:25;;;;;;;7.72;2.70;;;;;;;;;;6108247;19;20331;-73
2023/01/08 05:36:32;;;;;;;7.05;2.67;;;;;;;;;;6104244;19;20082;-74
2023/01/08 05:38:37;;;;;;;8.77;3.08;;;;;;;;;;6102037;19;20014;-73
2023/01/08 05:40:42;;;;;;;7.93;2.42;;;;;;;;;;6100889;19;20019;-73
2023/01/08 05:42:47;;;;;;;12.15;2.58;;;;;;;;;;6099545;19;20011;-73
2023/01/08 05:44:55;;;;;;;12.95;2.67;;;;;;;;;;6102244;19;20504;-73
2023/01/08 05:46:59;;;;;;;11.43;2.60;;;;;;;;;;6101513;19;20011;-72
2023/01/08 05:49:04;;;;;;;8.68;2.50;;;;;;;;;;6100880;19;20134;-72
2023/01/08 05:51:09;;;;;;;10.75;3.33;;;;;;;;;;6103670;19;20081;-73
2023/01/08 05:53:14;;;;;;;10.18;2.95;;;;;;;;;;6100730;19;20886;-73
2023/01/08 05:55:19;;;;;;;6.13;2.65;;;;;;;;;;6102447;19;20144;-73
2023/01/08 05:57:24;;;;;;;7.97;3.28;;;;;;;;;;6102090;19;20010;-73
2023/01/08 05:59:28;;;;;;;8.40;2.55;;;;;;;;;;6101948;19;20014;-73
2023/01/08 06:01:39;;;;;;;3.63;2.15;;;;;;;;;;6098802;19;20014;-73
2023/01/08 06:03:44;;;;;;;12.27;3.05;;;;;;;;;;6102205;19;20324;-74
2023/01/08 06:05:49;;;;;;;8.13;3.10;;;;;;;;;;6101657;19;20021;-73
2023/01/08 06:07:54;;;;;;;8.95;3.03;;;;;;;;;;6101017;19;20055;-73
2023/01/08 06:10:01;;;;;;;8.82;2.83;;;;;;;;;;6101299;19;20018;-72
2023/01/08 06:12:07;;;;;;;11.18;4.30;;;;;;;;;;6103452;19;20925;-72
2023/01/08 06:14:12;;;;;;;8.80;3.15;;;;;;;;;;6103495;19;20027;-74
2023/01/08 06:16:17;;;;;;;10.63;3.75;;;;;;;;;;6102356;19;20045;-73
2023/01/08 06:18:24;;;;;;;17.73;3.03;;;;;;;;;;6101783;19;20430;-73
2023/01/08 06:20:29;;;;;;;8.52;2.97;;;;;;;;;;6098438;19;20021;-73
2023/01/08 06:22:35;;;;;;;7.47;2.95;;;;;;;;;;6102291;19;20479;-72
2023/01/08 06:24:39;;;;;;;8.68;3.00;;;;;;;;;;6100249;19;20023;-73
2023/01/08 06:26:44;;;;;;;8.48;2.72;;;;;;;;;;6101015;19;20493;-73
2023/01/08 06:28:50;;;;;;;10.63;2.67;;;;;;;;;;6099485;19;20011;-73
2023/01/08 06:30:55;;;;;;;7.90;2.90;;;;;;;;;;6076835;19;20086;-71
2023/01/08 06:33:02;;;;;;;12.00;2.97;;;;;;;;;;6100937;19;20081;-72
2023/01/08 06:35:11;;;;;;;9.35;3.53;;;;;;;;;;6102803;19;20007;-72
2023/01/08 06:37:15;;;;;;;5.25;2.45;;;;;;;;;;6103315;19;20331;-72
2023/01/08 06:39:20;;;;;;;6.95;2.80;;;;;;;;;;6100847;19;20042;-72
2023/01/08 06:41:26;;;;;;;7.72;2.72;;;;;;;;;;6102460;19;20494;-72
2023/01/08 06:43:33;;;;;;;9.23;2.88;;;;;;;;;;6102285;19;20033;-73
2023/01/08 06:45:40;;;;;;;8.50;2.33;;;;;;;;;;6102425;19;20483;-72
2023/01/08 06:47:45;;;;;;;13.95;3.28;;;;;;;;;;6103623;19;20386;-72
2023/01/08 06:49:50;;;;;;;7.82;2.35;;;;;;;;;;6102627;19;20038;-72
2023/01/08 06:51:57;;;;;;;8.13;2.10;;;;;;;;;;6101903;19;20017;-72
2023/01/08 06:54:05;;;;;;;14.52;2.88;;;;;;;;;;6098311;19;20010;-72
2023/01/08 06:56:12;;;;;;;7.43;2.25;;;;;;;;;;6098358;19;20010;-72
2023/01/08 06:58:17;;;;;;;8.15;2.70;;;;;;;;;;6099066;19;20027;-72
2023/01/08 07:00:22;;;;;;;8.35;2.13;;;;;;;;;;6096546;19;20014;-72
2023/01/08 07:02:27;;;;;;;11.05;3.10;;;;;;;;;;6101451;19;20014;-71
2023/01/08 07:04:33;;;;;;;6.60;2.53;;;;;;;;;;6099529;19;20018;-72
2023/01/08 07:06:38;;;;;;;3.83;1.95;;;;;;;;;;6100122;19;20007;-71
2023/01/08 07:08:46;;;;;;;6.10;2.72;;;;;;;;;;6099543;19;20023;-71
2023/01/08 07:10:51;;;;;;;10.60;2.58;;;;;;;;;;6099982;19;20051;-71
2023/01/08 07:12:56;;;;;;;9.57;2.20;;;;;;;;;;6097806;19;20380;-70
2023/01/08 07:15:03;;;;;;;6.45;2.47;;;;;;;;;;6100860;19;20500;-70
2023/01/08 07:17:09;;;;;;;9.13;2.00;;;;;;;;;;6100301;19;20058;-70
2023/01/08 07:19:14;;;;;;;5.75;2.53;;;;;;;;;;6099074;19;20026;-70
2023/01/08 07:21:19;;;;;;;8.55;2.28;;;;;;;;;;6095286;19;20562;-71
2023/01/08 07:23:25;;;;;;;8.57;2.88;;;;;;;;;;6100792;19;20054;-70
2023/01/08 07:25:33;;;;;;;3.95;1.83;;;;;;;;;;6099633;19;20370;-71
2023/01/08 07:27:38;;;;;;;5.53;2.08;;;;;;;;;;6102290;19;20010;-71
2023/01/08 07:29:43;;;;;;;8.10;2.25;;;;;;;;;;6099434;19;20835;-70
2023/01/08 07:31:48;;;;;;;6.97;2.22;;;;;;;;;;6101581;19;20018;-70
2023/01/08 07:33:53;;;;;;;10.13;3.15;;;;;;;;;;6097765;19;20038;-70
2023/01/08 07:35:58;;;;;;;8.18;2.28;;;;;;;;;;6096512;19;20017;-71
2023/01/08 07:38:03;;;;;;;9.35;2.30;;;;;;;;;;6102053;19;20034;-72
2023/01/08 07:40:10;;;;;;;6.40;2.10;;;;;;;;;;6100323;19;20045;-69
2023/01/08 07:42:17;;;;;;;9.88;2.35;;;;;;;;;;6103767;19;20015;-70
2023/01/08 07:44:22;;;;;;;6.60;2.38;;;;;;;;;;6104294;19;20033;-70
2023/01/08 07:46:27;;;;;;;6.15;1.70;;;;;;;;;;6106278;19;20407;-71
2023/01/08 07:48:32;;;;;;;7.18;2.17;;;;;;;;;;6105908;19;20010;-71
2023/01/08 07:50:39;;;;;;;8.70;2.33;;;;;;;;;;6108438;19;20016;-71
2023/01/08 07:52:47;;;;;;;6.85;1.88;;;;;;;;;;6104675;19;20018;-72
2023/01/08 07:54:52;;;;;;;12.93;2.47;;;;;;;;;;6103236;19;20098;-72
2023/01/08 07:56:57;;;;;;;10.88;3.00;;;;;;;;;;6102123;19;20124;-71
2023/01/08 07:59:05;;;;;;;5.40;1.95;;;;;;;;;;6104589;19;20471;-70
2023/01/08 08:01:12;;;;;;;8.73;2.63;;;;;;;;;;6103722;19;20014;-70
2023/01/08 08:03:20;;;;;;;9.18;3.08;;;;;;;;;;6104719;19;20027;-70
2023/01/08 08:05:26;;;;;;;13.05;2.80;;;;;;;;;;6104441;19;20019;-72
2023/01/08 08:07:33;;;;;;;8.55;2.40;;;;;;;;;;6103514;19;20010;-71
2023/01/08 08:09:38;;;;;;;8.65;2.30;;;;;;;;;;6106134;19;20018;-72
2023/01/08 08:11:43;;;;;;;9.57;2.92;;;;;;;;;;6102877;19;20015;-72
2023/01/08 08:13:48;;;;;;;9.07;2.55;;;;;;;;;;6103928;19;20014;-72
2023/01/08 08:16:03;;;;;;;20.17;2.60;;;;;;;;;;6103102;19;20015;-72
2023/01/08 08:18:09;;;;;;;8.63;2.13;;;;;;;;;;6105655;19;20019;-72
2023/01/08 08:20:15;;;;;;;8.23;2.40;;;;;;;;;;6105976;19;20010;-72
2023/01/08 08:22:20;;;;;;;10.43;2.15;;;;;;;;;;6106419;19;20074;-72
2023/01/08 08:24:25;;;;;;;3.80;1.70;;;;;;;;;;6104790;19;20129;-72
2023/01/08 08:26:30;;;;;;;8.20;2.10;;;;;;;;;;6103808;19;20011;-72
2023/01/08 08:28:34;;;;;;;10.20;2.65;;;;;;;;;;6104980;19;20015;-71
2023/01/08 08:30:40;;;;;;;10.48;2.22;;;;;;;;;;6106546;19;20078;-72
2023/01/08 08:32:48;;;;;;;9.30;2.55;;;;;;;;;;6100739;19;20098;-71
2023/01/08 08:34:54;;;;;;;6.47;2.10;;;;;;;;;;6104510;19;20025;-71
2023/01/08 08:36:59;;;;;;;5.15;2.05;;;;;;;;;;6102353;19;20014;-70
2023/01/08 08:39:05;;;;;;;8.13;2.55;;;;;;;;;;6103197;19;20019;-70
2023/01/08 08:41:10;;;;;;;11.52;2.20;;;;;;;;;;6103854;19;20014;-71
2023/01/08 08:43:17;;;;;;;8.52;2.30;;;;;;;;;;6103957;19;20022;-72
2023/01/08 08:45:24;;;;;;;6.45;2.20;;;;;;;;;;6103352;19;20022;-72
2023/01/08 08:47:29;;;;;;;8.43;3.15;;;;;;;;;;6083002;19;20006;-71
2023/01/08 08:49:38;;;;;;;10.65;2.72;;;;;;;;;;6102317;19;20011;-71
2023/01/08 08:51:43;;;;;;;7.47;2.10;;;;;;;;;;6103545;19;20010;-74
2023/01/08 08:53:48;;;;;;;11.25;3.10;;;;;;;;;;6102781;19;20125;-71
2023/01/08 08:55:54;;;;;;;7.35;2.42;;;;;;;;;;6106132;19;20011;-72
2023/01/08 08:58:07;;;;;;;9.20;2.83;;;;;;;;;;6104424;19;20420;-73
2023/01/08 09:00:13;;;;;;;9.95;2.03;;;;;;;;;;6102199;19;20014;-72
2023/01/08 09:02:18;;;;;;;10.55;2.28;;;;;;;;;;6102439;19;20018;-72
2023/01/08 09:04:24;;;;;;;11.40;2.47;;;;;;;;;;6101666;19;20017;-73
2023/01/08 09:06:33;;;;;;;9.30;2.88;;;;;;;;;;6099147;19;20010;-73
2023/01/08 09:08:39;;;;;;;9.68;2.05;;;;;;;;;;6104112;19;20086;-72
2023/01/08 09:10:44;;;;;;;7.15;2.30;;;;;;;;;;6102714;19;20160;-72
2023/01/08 09:12:49;;;;;;;11.75;2.70;;;;;;;;;;6100918;19;20007;-72
2023/01/08 09:14:55;;;;;;;10.40;2.55;;;;;;;;;;6096213;19;20010;-72
2023/01/08 09:17:01;;;;;;;5.80;1.88;;;;;;;;;;6098901;19;20334;-73
2023/01/08 09:19:06;;;;;;;9.95;3.10;;;;;;;;;;6103088;19;20094;-72
2023/01/08 09:21:14;;;;;;;12.68;2.33;;;;;;;;;;6096724;19;20097;-73
2023/01/08 09:23:22;;;;;;;7.20;2.15;;;;;;;;;;6098775;19;20484;-73
2023/01/08 09:25:29;;;;;;;9.93;2.17;;;;;;;;;;6101263;19;20014;-71
2023/01/08 09:27:34;;;;;;;10.23;2.88;;;;;;;;;;6102731;19;20651;-72
2023/01/08 09:29:39;;;;;;;9.25;2.65;;;;;;;;;;6100723;19;20007;-72
2023/01/08 09:31:44;;;;;;;9.95;2.50;;;;;;;;;;6099581;19;20018;-72
2023/01/08 09:33:49;;;;;;;8.45;1.90;;;;;;;;;;6101635;19;20053;-71
2023/01/08 09:35:54;;;;;;;10.18;2.08;;;;;;;;;;6104906;19;20421;-72
2023/01/08 09:38:00;;;;;;;10.65;2.28;;;;;;;;;;6105434;19;20014;-72
2023/01/08 09:40:11;;;;;;;10.73;2.47;;;;;;;;;;6103324;19;20006;-71
2023/01/08 09:42:17;;;;;;;8.25;2.88;;;;;;;;;;6103050;19;20019;-71
2023/01/08 09:44:25;;;;;;;5.22;2.00;;;;;;;;;;6104868;19;20006;-72
2023/01/08 09:46:33;;;;;;;4.53;1.92;;;;;;;;;;6106155;19;20010;-73
2023/01/08 09:48:46;;;;;;;12.50;2.80;;;;;;;;;;6103888;19;20027;-74
2023/01/08 09:50:51;;;;;;;8.25;2.17;;;;;;;;;;6095878;19;20010;-73
2023/01/08 09:52:56;;;;;;;7.47;3.05;;;;;;;;;;6101263;19;20013;-71
2023/01/08 09:55:04;;;;;;;13.02;2.38;;;;;;;;;;6104110;19;20024;-71
2023/01/08 09:57:15;;;;;;;7.70;2.40;;;;;;;;;;6105638;19;20010;-72
2023/01/08 09:59:21;;;;;;;8.45;2.38;;;;;;;;;;6103837;19;20070;-72
2023/01/08 10:01:29;;;;;;;10.63;2.47;;;;;;;;;;6103798;19;20037;-73
2023/01/08 10:03:41;;;;;;;8.95;2.80;;;;;;;;;;6098221;19;20089;-73
2023/01/08 10:05:46;;;;;;;11.00;2.45;;;;;;;;;;6099144;19;20048;-72
2023/01/08 10:07:51;;;;;;;4.65;2.13;;;;;;;;;;6100086;19;20011;-72
2023/01/08 10:09:57;;;;;;;14.95;2.70;;;;;;;;;;6096984;19;20014;-73
2023/01/08 10:12:06;;;;;;;10.50;3.00;;;;;;;;;;6096998;19;20018;-73
2023/01/08 10:14:22;;;;;;;7.07;2.30;;;;;;;;;;6098038;19;20031;-73
2023/01/08 10:16:30;;;;;;;8.52;2.50;;;;;;;;;;6101695;19;20078;-74
2023/01/08 10:18:36;;;;;;;6.57;1.98;;;;;;;;;;6100152;19;20027;-72
2023/01/08 10:20:44;;;;;;;10.68;2.85;;;;;;;;;;6098175;19;20014;-72
2023/01/08 10:22:53;;;;;;;8.50;2.38;;;;;;;;;;6098530;19;20463;-72
2023/01/08 10:25:08;;;;;;;10.15;2.80;;;;;;;;;;6091863;19;20007;-70
2023/01/08 10:27:15;;;;;;;4.82;2.13;;;;;;;;;;6097823;19;20014;-72
2023/01/08 10:29:26;;;;;;;8.52;2.60;;;;;;;;;;6096306;19;20003;-71
2023/01/08 10:31:32;;;;;;;5.75;2.28;;;;;;;;;;6098879;19;20351;-71
2023/01/08 10:36:42;;;;;;;6.50;2.58;;;;;;;;;;6081991;19;20594;-72
2023/01/08 10:38:52;;;;;;;5.95;1.80;;;;;;;;;;6095834;19;20024;-72
2023/01/08 10:40:57;;;;;;;8.48;2.72;;;;;;;;;;6095886;19;20002;-72
2023/01/08 10:43:08;;;;;;;5.03;2.05;;;;;;;;;;6102240;19;20027;-72
2023/01/08 10:45:22;;;;;;;9.85;2.92;;;;;;;;;;6102248;19;20014;-71
2023/01/08 10:47:30;;;;;;;8.35;2.58;;;;;;;;;;6104159;19;20082;-72
2023/01/08 10:49:38;;;;;;;5.85;1.77;;;;;;;;;;6098353;19;20029;-73
2023/01/08 10:51:50;;;;;;;8.07;2.53;;;;;;;;;;6101181;19;20023;-72
2023/01/08 10:53:59;;;;;;;12.73;3.55;;;;;;;;;;6093979;19;20420;-72
2023/01/08 10:56:06;;;;;;;5.75;1.95;;;;;;;;;;6098262;19;20011;-71
2023/01/08 10:58:18;;;;;;;5.88;2.33;;;;;;;;;;6099372;19;20070;-72
2023/01/08 11:00:28;;;;;;;7.43;2.45;;;;;;;;;;6098483;19;20660;-71
2023/01/08 11:02:36;;;;;;;8.52;2.05;;;;;;;;;;6075290;19;20002;-71
2023/01/08 11:04:48;;;;;;;8.63;2.42;;;;;;;;;;6097116;19;20022;-72
2023/01/08 11:06:58;;;;;;;6.65;2.00;;;;;;;;;;6097735;19;20038;-73
2023/01/08 11:09:09;;;;;;;6.72;2.20;;;;;;;;;;6070230;19;20014;-72
2023/01/08 11:11:14;;;;;;;8.15;2.63;;;;;;;;;;6074840;19;20058;-72
2023/01/08 11:13:21;;;;;;;6.00;1.98;;;;;;;;;;6094760;19;20674;-76
2023/01/08 11:15:40;;;;;;;5.05;1.90;;;;;;;;;;6074545;19;20016;-72
2023/01/08 11:17:46;;;;;;;6.53;1.88;;;;;;;;;;6100689;19;20018;-72
2023/01/08 11:19:51;;;;;;;7.03;2.47;;;;;;;;;;6100142;19;20031;-75
2023/01/08 11:22:03;;;;;;;7.55;2.00;;;;;;;;;;6099597;19;20003;-74
2023/01/08 11:24:19;;;;;;;3.75;2.03;;;;;;;;;;6102236;19;20374;-73
2023/01/08 11:26:26;;;;;;;4.60;1.70;;;;;;;;;;6104852;19;20014;-74
2023/01/08 11:28:47;;;;;;;4.97;2.10;;;;;;;;;;6081997;19;20010;-74
2023/01/08 11:30:58;;;;;;;11.23;2.72;;;;;;;;;;6102801;19;20102;-74
2023/01/08 11:33:07;;;;;;;10.88;2.83;;;;;;;;;;6101579;19;20538;-75
2023/01/08 11:35:17;;;;;;;6.80;2.28;;;;;;;;;;6107391;19;20017;-75
2023/01/08 11:37:24;;;;;;;4.85;2.08;;;;;;;;;;6106804;19;20387;-75
2023/01/08 11:39:28;;;;;;;9.55;2.85;;;;;;;;;;6100628;19;20378;-76
2023/01/08 11:41:52;;;;;;;12.25;2.40;;;;;;;;;;6039043;19;20022;-75
2023/01/08 11:44:14;;;;;;;4.93;2.17;;;;;;;;;;6104138;19;20003;-76
2023/01/08 11:46:32;;;;;;;5.80;2.58;;;;;;;;;;6106633;19;20041;-75
2023/01/08 11:48:51;;;;;;;8.43;2.83;;;;;;;;;;6106754;19;20006;-76
2023/01/08 11:51:05;;;;;;;5.32;2.65;;;;;;;;;;6105823;19;20014;-75
2023/01/08 11:53:21;;;;;;;11.45;2.88;;;;;;;;;;6106530;19;20923;-76
2023/01/08 11:55:45;;;;;;;7.75;2.78;;;;;;;;;;6107249;19;20443;-76
2023/01/08 11:58:01;;;;;;;6.72;2.70;;;;;;;;;;6108341;19;20018;-75
2023/01/08 12:00:17;;;;;;;7.50;3.50;;;;;;;;;;6107696;19;20043;-74
2023/01/08 12:02:31;;;;;;;7.47;3.13;;;;;;;;;;6106137;19;20019;-75
2023/01/08 12:04:55;;;;;;;8.63;3.25;;;;;;;;;;6106006;19;20247;-75
2023/01/08 12:07:06;;;;;;;5.28;2.45;;;;;;;;;;6100878;19;20023;-75
2023/01/08 12:09:17;;;;;;;6.85;2.50;;;;;;;;;;6107801;19;20019;-75
2023/01/08 12:11:26;;;;;;;11.10;3.25;;;;;;;;;;6105933;19;20018;-74
2023/01/08 12:14:04;;;;;;;7.53;2.65;;;;;;;;;;6107000;19;20551;-74
2023/01/08 12:16:17;;;;;;;5.57;2.42;;;;;;;;;;6107912;19;20011;-75
2023/01/08 12:18:44;;;;;;;5.03;2.47;;;;;;;;;;6106435;19;20002;-75
2023/01/08 12:20:56;;;;;;;6.13;2.85;;;;;;;;;;6105617;19;20456;-74
2023/01/08 12:23:13;;;;;;;5.93;2.20;;;;;;;;;;6102013;19;20044;-75
2023/01/08 12:25:36;;;;;;;10.88;2.65;;;;;;;;;;6106140;19;20689;-75
2023/01/08 12:27:47;;;;;;;4.68;2.22;;;;;;;;;;6101879;19;20015;-75
2023/01/08 12:30:12;;;;;;;3.00;2.20;;;;;;;;;;6101817;19;20011;-74
2023/01/08 12:32:26;;;;;;;7.05;2.25;;;;;;;;;;6105727;19;20014;-74
2023/01/08 12:34:43;;;;;;;3.83;1.60;;;;;;;;;;6105105;19;20011;-76
2023/01/08 12:36:56;;;;;;;5.32;2.13;;;;;;;;;;6105970;19;20463;-74
2023/01/08 12:39:06;;;;;;;5.65;2.20;;;;;;;;;;6095680;19;20011;-74
2023/01/08 12:41:13;;;;;;;7.70;2.40;;;;;;;;;;6103872;19;20010;-75
2023/01/08 12:43:21;;;;;;;6.13;2.42;;;;;;;;;;6100730;19;20476;-74
2023/01/08 12:45:32;;;;;;;5.28;2.28;;;;;;;;;;6102115;19;20023;-74